Stoutsville, Missouri
Current Conditions -  °F | °C
As of 8:54 AM on Monday 24 Nov 2014 (Local Time) from KUIN Reporting Station
Overcast Overcast  
Wind Chill: -7°   Ceiling: 2000
Heat Index:   Visibility: 10mi
Dew Point: -4°   Wind: 21mph
Humidity: 75%   Direction: 270°W
Pressure: 29.54"   Gusts: 35mph
Location:  39.55°N, 91.86°W
Report Text: KUIN 241454Z AUTO 27018G30KT 10SM OVC020 00/M04 A2954 RMK AO2 PK WND 28030/1445 SLP004 T00001039 53047
Loading
Personal Weather Stations






























Interactive Weather Map New forecast layout! Learn more

10-Day Weather Forecast

Advertisements
Track Severe Weather on mobile